Jamestown Regional Airport
KJMS : rendu visible

Aérodrome :











RETROUVEZ-NOUS SUR...

 
LOGIN :

S'inscrire | Disclaimer

   EN    FR    IT 

 









Légende :    VFR   VFR Marginal   IFR   IFR Intensif   IFR Très Intensif
Visi : 
Plafond : 
>= 8 km
>= 3000ft
5 à 8 km
1000 à 3000 ft
1500m à 5 km
500 à 1000 ft
800 à 1500m
200 à 500 ft
< 800m
< 200 ft
Symboles :   Orages  Brouillard  Fortes neiges  Fortes précipitations  Vent > 20 kt






- Altitude de l'aérodrome : 1500 ft
- Code IATA : JMS


KJMS - Jamestown Regional

DERNIER METAR :
  • 191256Z AUTO 30009KT 10SM OVC020 03/01 A2976 RMK AO2 SLP091 T00280006 TSNO

METARs EXPIRÉS :
  • 191156Z AUTO 30012KT 10SM OVC020 03/01 A2975 RMK AO2 SLP088 70001 T00280006 10039 20017 53015 TSNO
  • 191056Z AUTO 29011KT 10SM OVC021 03/01 A2973 RMK AO2 SLP081 T00330006 TSNO

TAF KJMS
Valide du 19 à 12h jusqu'au 20 à 12h UTC


191138Z 1912/2012 30009KT P6SM OVC025
TEMPO 1912/1915 OVC015
FM191700 31008KT P6SM BKN035
FM192300 VRB03KT P6SM BKN030
FM200600 09006KT P6SM OVC025



MET'MAP, la Météo Aéronautique d'un coup d'oeil ! - Copyright ORBIFLY Décembre 2007 - Disclaimer

ORBIFLY MET'MAP TEAM :

Programmation & Développement : Alexandra Zaïnal
Conception & Développement : Baudouin d'Aumeries
Co-Programmation & Développement : Marc-Olivier Méhu
Soutien technique & logistique : Manuel Goepfert

Contact : metmap@orbifly.com




SOURCES & CREDITS :

   NOAA       Earth
Advisory